createdAt,value
2023-03-26T00:00:49.045Z,94683.00
2023-03-26T00:01:49.069Z,94683.00
2023-03-26T00:02:49.066Z,94681.00
2023-03-26T00:03:49.094Z,94679.00
2023-03-26T00:04:49.113Z,94681.00
2023-03-26T00:05:49.208Z,94681.00
2023-03-26T00:06:49.188Z,94677.00
2023-03-26T00:07:49.165Z,94677.00
2023-03-26T00:08:49.197Z,94673.00
2023-03-26T00:09:49.212Z,94673.00
2023-03-26T00:10:49.238Z,94673.00
2023-03-26T00:11:49.266Z,94679.00
2023-03-26T00:12:49.283Z,94677.00
2023-03-26T00:13:49.330Z,94675.00
2023-03-26T00:14:49.336Z,94677.00
2023-03-26T00:15:49.377Z,94677.00
2023-03-26T00:16:49.463Z,94679.00
2023-03-26T00:17:49.445Z,94679.00
2023-03-26T00:18:49.445Z,94679.00
2023-03-26T00:19:49.485Z,94675.00
2023-03-26T00:20:49.480Z,94677.00
2023-03-26T00:21:49.555Z,94673.00
2023-03-26T00:22:49.548Z,94671.00
2023-03-26T00:23:49.613Z,94669.00
2023-03-26T00:35:49.887Z,94675.00
2023-03-26T00:36:49.909Z,94679.00
2023-03-26T00:49:50.187Z,94663.00
2023-03-26T00:50:50.206Z,94661.00
2023-03-26T00:51:50.259Z,94663.00
2023-03-26T00:52:50.261Z,94661.00
2023-03-26T00:53:50.276Z,94659.00
2023-03-26T00:54:50.306Z,94659.00
2023-03-26T00:55:50.305Z,94659.00
2023-03-26T00:59:50.347Z,94661.00
2023-03-26T01:00:50.380Z,94657.00
2023-03-26T01:01:50.458Z,94657.00
2023-03-26T01:02:50.489Z,94653.00
2023-03-26T01:04:04.849Z,94655.00
2023-03-26T01:04:51.450Z,94651.00
2023-03-26T01:06:50.444Z,94649.00
2023-03-26T01:08:50.431Z,94643.00
2023-03-26T01:09:50.508Z,94645.00
2023-03-26T01:10:50.418Z,94641.00
2023-03-26T01:11:50.412Z,94643.00
2023-03-26T01:13:50.412Z,94641.00
2023-03-26T01:22:50.389Z,94643.00
2023-03-26T01:23:50.437Z,94643.00
2023-03-26T01:24:50.478Z,94643.00
2023-03-26T01:25:50.484Z,94645.00
2023-03-26T01:26:50.552Z,94643.00
2023-03-26T01:27:50.567Z,94645.00
2023-03-26T01:28:50.597Z,94641.00
2023-03-26T01:29:50.628Z,94637.00
2023-03-26T01:30:50.687Z,94635.00
2023-03-26T01:31:50.696Z,94633.00
2023-03-26T01:32:50.814Z,94633.00
2023-03-26T01:33:50.753Z,94626.00
2023-03-26T01:34:50.767Z,94626.00
2023-03-26T01:35:50.957Z,94624.00
2023-03-26T01:36:50.832Z,94616.00
2023-03-26T01:37:50.901Z,94618.00
2023-03-26T01:38:50.913Z,94616.00
2023-03-26T01:39:50.959Z,94614.00
2023-03-26T01:40:51.003Z,94610.00
2023-03-26T01:41:51.006Z,94610.00
2023-03-26T01:42:51.035Z,94606.00
2023-03-26T01:43:51.103Z,94606.00
2023-03-26T01:44:51.122Z,94610.00
2023-03-26T01:45:51.132Z,94610.00
2023-03-26T01:46:51.200Z,94610.00
2023-03-26T01:47:51.214Z,94616.00
2023-03-26T01:48:51.215Z,94618.00
2023-03-26T01:49:51.255Z,94618.00
2023-03-26T01:50:51.296Z,94614.00
2023-03-26T01:51:51.303Z,94616.00
2023-03-26T01:52:51.370Z,94612.00
2023-03-26T01:53:51.388Z,94608.00
2023-03-26T01:54:51.395Z,94614.00
2023-03-26T01:55:51.502Z,94614.00
2023-03-26T01:56:51.481Z,94618.00
2023-03-26T01:57:51.513Z,94618.00
2023-03-26T01:58:51.542Z,94620.00
2023-03-26T01:59:51.562Z,94624.00
2023-03-26T02:00:51.593Z,94622.00
2023-03-26T02:01:51.698Z,94622.00
2023-03-26T02:02:51.761Z,94620.00
2023-03-26T02:03:51.744Z,94618.00
2023-03-26T02:04:51.755Z,94620.00
2023-03-26T02:05:51.942Z,94620.00
2023-03-26T02:06:51.822Z,94618.00
2023-03-26T02:07:51.849Z,94622.00
2023-03-26T02:08:51.905Z,94618.00
2023-03-26T02:09:51.938Z,94620.00
2023-03-26T02:10:51.948Z,94616.00
2023-03-26T02:11:51.981Z,94618.00
2023-03-26T02:12:52.038Z,94622.00
2023-03-26T02:13:52.062Z,94626.00
2023-03-26T02:14:52.072Z,94635.00
2023-03-26T02:15:52.404Z,94637.00
2023-03-26T02:17:52.319Z,94639.00
2023-03-26T02:18:52.237Z,94637.00
2023-03-26T02:19:52.278Z,94637.00
2023-03-26T02:20:52.283Z,94637.00
2023-03-26T02:21:52.310Z,94633.00
2023-03-26T02:22:52.367Z,94626.00
2023-03-26T02:23:52.373Z,94624.00
2023-03-26T02:24:52.419Z,94622.00
2023-03-26T02:25:52.743Z,94622.00
2023-03-26T02:26:52.468Z,94624.00
2023-03-26T02:27:52.493Z,94622.00
2023-03-26T02:28:52.581Z,94622.00
2023-03-26T02:29:52.565Z,94624.00
2023-03-26T02:30:52.617Z,94620.00
2023-03-26T02:31:52.701Z,94620.00
2023-03-26T02:32:52.721Z,94618.00
2023-03-26T02:33:52.700Z,94618.00
2023-03-26T02:34:52.741Z,94620.00
2023-03-26T02:35:53.309Z,94620.00
2023-03-26T02:36:52.868Z,94626.00
2023-03-26T02:37:52.855Z,94622.00
2023-03-26T02:38:52.876Z,94618.00
2023-03-26T02:39:52.880Z,94618.00
2023-03-26T02:40:52.927Z,94616.00
2023-03-26T02:41:52.973Z,94616.00
2023-03-26T02:42:53.022Z,94612.00
2023-03-26T02:43:53.059Z,94612.00
2023-03-26T02:44:53.047Z,94612.00
2023-03-26T02:45:53.358Z,94610.00
2023-03-26T02:46:53.147Z,94610.00
2023-03-26T02:47:53.239Z,94608.00
2023-03-26T02:48:53.252Z,94608.00
2023-03-26T02:49:53.280Z,94602.00
2023-03-26T02:50:53.299Z,94604.00
2023-03-26T02:51:53.336Z,94604.00
2023-03-26T02:52:53.379Z,94608.00
2023-03-26T02:53:53.438Z,94608.00
2023-03-26T02:54:53.508Z,94606.00
2023-03-26T02:55:53.866Z,94610.00
2023-03-26T02:56:53.604Z,94612.00
2023-03-26T02:57:53.602Z,94614.00
2023-03-26T02:58:53.712Z,94612.00
2023-03-26T02:59:53.663Z,94608.00
2023-03-26T03:00:53.727Z,94606.00
2023-03-26T03:01:53.772Z,94606.00
2023-03-26T03:02:53.896Z,94604.00
2023-03-26T03:03:53.825Z,94602.00
2023-03-26T03:07:53.970Z,94600.00
2023-03-26T03:08:54.126Z,94600.00
2023-03-26T03:09:54.039Z,94600.00
2023-03-26T03:10:54.091Z,94596.00
2023-03-26T03:11:54.125Z,94592.00
2023-03-26T03:12:54.163Z,94590.00
2023-03-26T03:13:54.210Z,94588.00
2023-03-26T03:14:54.261Z,94588.00
2023-03-26T03:15:54.468Z,94586.00
2023-03-26T03:16:54.349Z,94586.00
2023-03-26T03:17:54.371Z,94584.00
2023-03-26T03:18:54.829Z,94584.00
2023-03-26T03:19:54.435Z,94588.00
2023-03-26T03:20:54.506Z,94588.00
2023-03-26T03:21:54.535Z,94586.00
2023-03-26T03:22:54.591Z,94588.00
2023-03-26T03:23:54.626Z,94582.00
2023-03-26T03:24:54.661Z,94586.00
2023-03-26T03:25:54.852Z,94584.00
2023-03-26T03:26:54.738Z,94582.00
2023-03-26T03:27:54.765Z,94580.00
2023-03-26T03:28:54.795Z,94580.00
2023-03-26T03:29:55.494Z,94577.00
2023-03-26T03:44:55.438Z,94563.00
2023-03-26T03:45:55.701Z,94567.00
2023-03-26T03:46:55.492Z,94567.00
2023-03-26T03:47:55.547Z,94569.00
2023-03-26T03:48:55.597Z,94569.00
2023-03-26T03:49:55.619Z,94571.00
2023-03-26T03:50:55.654Z,94569.00
2023-03-26T03:51:55.704Z,94567.00
2023-03-26T03:52:55.737Z,94567.00
2023-03-26T03:53:55.779Z,94563.00
2023-03-26T03:54:55.850Z,94563.00
2023-03-26T03:55:56.077Z,94563.00
2023-03-26T03:56:55.931Z,94559.00
2023-03-26T03:57:55.925Z,94555.00
2023-03-26T03:58:55.964Z,94553.00
2023-03-26T03:59:56.000Z,94551.00
2023-03-26T04:00:56.031Z,94549.00
2023-03-26T04:01:56.084Z,94547.00
2023-03-26T04:02:56.178Z,94545.00
2023-03-26T04:03:56.305Z,94543.00
2023-03-26T04:04:56.185Z,94547.00
2023-03-26T04:05:56.361Z,94549.00
2023-03-26T04:06:56.301Z,94551.00
2023-03-26T04:07:56.280Z,94553.00
2023-03-26T04:08:56.321Z,94555.00
2023-03-26T04:09:56.354Z,94553.00
2023-03-26T04:10:56.387Z,94555.00
2023-03-26T04:11:56.405Z,94551.00
2023-03-26T04:12:56.464Z,94553.00
2023-03-26T04:13:56.528Z,94553.00
2023-03-26T04:14:56.576Z,94549.00
2023-03-26T04:15:56.856Z,94547.00
2023-03-26T04:16:56.616Z,94547.00
2023-03-26T04:17:56.720Z,94545.00
2023-03-26T04:18:56.735Z,94543.00
2023-03-26T04:19:56.744Z,94541.00
2023-03-26T04:20:56.778Z,94543.00
2023-03-26T04:21:56.814Z,94543.00
2023-03-26T04:22:56.855Z,94545.00
2023-03-26T04:23:56.932Z,94543.00
2023-03-26T04:39:57.580Z,94520.00
2023-03-26T04:40:57.658Z,94520.00
2023-03-26T04:41:57.701Z,94518.00
2023-03-26T04:42:57.752Z,94516.00
2023-03-26T04:43:57.789Z,94514.00
2023-03-26T04:44:57.877Z,94510.00
2023-03-26T04:45:57.912Z,94512.00
2023-03-26T04:46:57.960Z,94508.00
2023-03-26T04:47:58.013Z,94506.00
2023-03-26T04:48:58.013Z,94506.00
2023-03-26T04:49:58.063Z,94500.00
2023-03-26T04:50:58.177Z,94498.00
2023-03-26T05:06:58.838Z,94477.00
2023-03-26T05:07:58.847Z,94473.00
2023-03-26T05:08:58.897Z,94473.00
2023-03-26T05:09:58.930Z,94473.00
2023-03-26T05:10:59.025Z,94473.00
2023-03-26T05:11:59.030Z,94471.00
2023-03-26T05:12:59.081Z,94473.00
2023-03-26T05:13:59.145Z,94475.00
2023-03-26T05:14:59.156Z,94477.00
2023-03-26T05:15:59.222Z,94475.00
2023-03-26T05:16:59.224Z,94475.00
2023-03-26T05:17:59.317Z,94477.00
2023-03-26T05:18:59.323Z,94479.00
2023-03-26T05:19:59.330Z,94481.00
2023-03-26T05:20:59.368Z,94486.00
2023-03-26T05:21:59.444Z,94485.00
2023-03-26T05:22:59.517Z,94486.00
2023-03-26T05:23:59.534Z,94486.00
2023-03-26T05:24:59.554Z,94485.00
2023-03-26T05:25:59.608Z,94485.00
2023-03-26T05:26:59.676Z,94486.00
2023-03-26T05:27:59.701Z,94486.00
2023-03-26T05:28:59.729Z,94483.00
2023-03-26T05:29:59.764Z,94485.00
2023-03-26T05:30:59.812Z,94485.00
2023-03-26T05:31:59.853Z,94485.00
2023-03-26T05:32:59.948Z,94483.00
2023-03-26T05:34:00.008Z,94485.00
2023-03-26T05:34:59.992Z,94486.00
2023-03-26T05:36:00.053Z,94483.00
2023-03-26T05:37:00.054Z,94479.00
2023-03-26T05:38:00.128Z,94479.00
2023-03-26T05:39:00.130Z,94479.00
2023-03-26T05:40:00.197Z,94473.00
2023-03-26T05:41:00.220Z,94475.00
2023-03-26T05:42:00.258Z,94471.00
2023-03-26T05:43:00.264Z,94469.00
2023-03-26T05:44:00.341Z,94467.00
2023-03-26T05:45:00.385Z,94465.00
2023-03-26T05:46:00.548Z,94463.00
2023-03-26T05:47:00.469Z,94459.00
2023-03-26T05:48:00.537Z,94457.00
2023-03-26T05:49:00.542Z,94455.00
2023-03-26T05:50:00.590Z,94451.00
2023-03-26T05:51:00.636Z,94451.00
2023-03-26T05:52:00.677Z,94449.00
2023-03-26T05:53:00.721Z,94449.00
2023-03-26T05:54:00.783Z,94449.00
2023-03-26T05:55:00.820Z,94445.00
2023-03-26T05:56:00.854Z,94447.00
2023-03-26T05:57:00.949Z,94445.00
2023-03-26T05:58:00.916Z,94443.00
2023-03-26T05:59:00.990Z,94441.00
2023-03-26T06:00:01.019Z,94439.00
2023-03-26T06:01:01.077Z,94436.00
2023-03-26T06:02:01.110Z,94432.00
2023-03-26T06:03:01.323Z,94432.00
2023-03-26T06:04:01.360Z,94432.00
2023-03-26T06:05:01.257Z,94430.00
2023-03-26T06:06:01.278Z,94432.00
2023-03-26T06:07:01.349Z,94432.00
2023-03-26T06:08:01.377Z,94428.00
2023-03-26T06:09:02.968Z,94428.00
2023-03-26T06:10:01.453Z,94430.00
2023-03-26T06:11:01.515Z,94430.00
2023-03-26T06:12:01.522Z,94426.00
2023-03-26T06:13:01.555Z,94424.00
2023-03-26T06:14:01.671Z,94424.00
2023-03-26T06:15:01.723Z,94422.00
2023-03-26T06:16:01.721Z,94418.00
2023-03-26T06:17:01.739Z,94412.00
2023-03-26T06:33:02.241Z,94394.00
2023-03-26T06:34:02.215Z,94398.00
2023-03-26T06:35:02.256Z,94402.00
2023-03-26T06:36:02.328Z,94406.00
2023-03-26T06:37:02.342Z,94406.00
2023-03-26T06:38:02.389Z,94402.00
2023-03-26T06:39:02.440Z,94398.00
2023-03-26T06:40:03.441Z,94392.00
2023-03-26T06:41:02.386Z,94388.00
2023-03-26T06:42:02.438Z,94388.00
2023-03-26T06:47:02.374Z,94392.00
2023-03-26T06:48:02.425Z,94388.00
2023-03-26T06:50:02.376Z,94369.00
2023-03-26T06:51:02.341Z,94367.00
2023-03-26T06:52:02.349Z,94365.00
2023-03-26T06:54:02.337Z,94361.00
2023-03-26T06:55:02.345Z,94361.00
2023-03-26T06:56:02.368Z,94367.00
2023-03-26T06:57:02.451Z,94365.00
2023-03-26T06:58:02.414Z,94365.00
2023-03-26T06:59:02.427Z,94361.00
2023-03-26T07:00:02.468Z,94355.00
2023-03-26T07:01:02.529Z,94355.00
2023-03-26T07:02:02.492Z,94353.00
2023-03-26T07:03:02.582Z,94351.00
2023-03-26T07:04:02.575Z,94349.00
2023-03-26T07:05:02.598Z,94347.00
2023-03-26T07:06:02.650Z,94339.00
2023-03-26T07:07:02.698Z,94336.00
2023-03-26T07:08:02.716Z,94332.00
2023-03-26T07:09:02.750Z,94326.00
2023-03-26T07:10:02.758Z,94320.00
2023-03-26T07:11:02.827Z,94316.00
2023-03-26T07:12:02.827Z,94314.00
2023-03-26T07:13:02.868Z,94312.00
2023-03-26T07:14:02.878Z,94306.00
2023-03-26T07:15:02.898Z,94306.00
2023-03-26T07:16:02.983Z,94300.00
2023-03-26T07:17:02.937Z,94302.00
2023-03-26T07:18:03.045Z,94294.00
2023-03-26T07:19:03.006Z,94292.00
2023-03-26T07:20:03.036Z,94289.00
2023-03-26T07:21:03.056Z,94285.00
2023-03-26T07:22:03.083Z,94281.00
2023-03-26T07:23:03.095Z,94281.00
2023-03-26T07:24:03.105Z,94281.00
2023-03-26T07:31:03.111Z,94300.00
2023-03-26T07:32:03.211Z,94300.00
2023-03-26T07:38:03.164Z,94298.00
2023-03-26T07:39:03.206Z,94298.00
2023-03-26T07:40:04.077Z,94292.00
2023-03-26T07:44:03.271Z,94285.00
2023-03-26T07:45:03.322Z,94287.00
2023-03-26T07:46:03.402Z,94287.00
2023-03-26T07:47:03.399Z,94285.00
2023-03-26T07:48:03.565Z,94283.00
2023-03-26T07:49:03.539Z,94277.00
2023-03-26T07:50:03.663Z,94271.00
2023-03-26T07:51:03.676Z,94263.00
2023-03-26T07:52:03.727Z,94255.00
2023-03-26T07:53:03.766Z,94255.00
2023-03-26T07:54:03.910Z,94249.00
2023-03-26T07:55:03.943Z,94245.00
2023-03-26T07:56:03.974Z,94241.00
2023-03-26T07:57:04.496Z,94234.00
2023-03-26T07:58:04.101Z,94226.00
2023-03-26T07:59:04.200Z,94218.00
2023-03-26T08:00:04.091Z,94212.00
2023-03-26T08:01:04.089Z,94214.00
2023-03-26T08:10:04.095Z,94183.00
2023-03-26T08:11:04.137Z,94177.00
2023-03-26T08:12:04.127Z,94175.00
2023-03-26T08:15:04.097Z,94179.00
2023-03-26T08:16:04.117Z,94181.00
2023-03-26T08:17:04.130Z,94183.00
2023-03-26T08:18:04.151Z,94183.00
2023-03-26T08:19:04.160Z,94185.00
2023-03-26T08:25:04.160Z,94187.00
2023-03-26T08:26:04.163Z,94189.00
2023-03-26T08:27:04.250Z,94187.00
2023-03-26T08:28:04.164Z,94181.00
2023-03-26T08:29:04.172Z,94177.00
2023-03-26T08:33:04.225Z,94155.00
2023-03-26T08:34:04.186Z,94155.00
2023-03-26T08:43:04.226Z,94124.00
2023-03-26T08:44:04.221Z,94122.00
2023-03-26T08:47:04.202Z,94120.00
2023-03-26T08:48:04.231Z,94120.00
2023-03-26T08:49:04.233Z,94110.00
2023-03-26T08:52:04.240Z,94097.00
2023-03-26T08:53:04.256Z,94095.00
2023-03-26T08:57:04.265Z,94091.00
2023-03-26T08:58:04.269Z,94091.00
2023-03-26T09:02:04.353Z,94075.00
2023-03-26T09:03:04.306Z,94071.00
2023-03-26T09:07:04.286Z,94075.00
2023-03-26T09:08:04.311Z,94079.00
2023-03-26T09:10:04.287Z,94085.00
2023-03-26T09:11:04.303Z,94089.00
2023-03-26T09:12:04.337Z,94089.00
2023-03-26T09:14:04.405Z,94087.00
2023-03-26T09:15:04.470Z,94085.00
2023-03-26T09:16:04.596Z,94087.00
2023-03-26T09:17:04.524Z,94089.00
2023-03-26T09:20:04.515Z,94091.00
2023-03-26T09:21:04.524Z,94087.00
2023-03-26T09:22:04.537Z,94089.00
2023-03-26T09:25:04.525Z,94091.00
2023-03-26T09:26:04.572Z,94089.00
2023-03-26T09:32:04.582Z,94083.00
2023-03-26T09:33:04.621Z,94081.00
2023-03-26T09:34:04.613Z,94083.00
2023-03-26T09:38:04.623Z,94085.00
2023-03-26T09:39:04.630Z,94083.00
2023-03-26T09:40:04.649Z,94079.00
2023-03-26T09:45:04.692Z,94065.00
2023-03-26T09:46:04.707Z,94063.00
2023-03-26T09:47:04.712Z,94063.00
2023-03-26T09:52:04.774Z,94049.00
2023-03-26T09:56:04.818Z,94045.00
2023-03-26T09:57:04.772Z,94042.00
2023-03-26T09:58:04.869Z,94040.00
2023-03-26T09:59:04.795Z,94040.00
2023-03-26T10:00:04.828Z,94038.00
2023-03-26T10:02:04.794Z,94032.00
2023-03-26T10:03:04.814Z,94032.00
2023-03-26T10:04:04.807Z,94034.00
2023-03-26T10:05:04.894Z,94032.00
2023-03-26T10:06:04.813Z,94032.00
2023-03-26T10:07:04.839Z,94028.00
2023-03-26T10:08:04.829Z,94022.00
2023-03-26T10:14:04.870Z,94024.00
2023-03-26T10:15:04.870Z,94020.00
2023-03-26T10:16:04.840Z,94014.00
2023-03-26T10:17:05.003Z,94010.00
2023-03-26T10:18:04.914Z,94010.00
2023-03-26T10:19:05.862Z,94010.00
2023-03-26T10:20:04.857Z,94014.00
2023-03-26T10:21:04.877Z,94012.00
2023-03-26T10:26:04.797Z,94004.00
2023-03-26T10:29:04.765Z,94006.00
2023-03-26T10:30:04.788Z,94008.00
2023-03-26T10:31:04.839Z,94010.00
2023-03-26T10:32:04.760Z,94012.00
2023-03-26T10:38:04.734Z,94006.00
2023-03-26T10:39:04.724Z,94006.00
2023-03-26T10:40:04.707Z,94008.00
2023-03-26T10:42:04.690Z,94010.00
2023-03-26T10:43:04.725Z,94012.00
2023-03-26T10:49:04.657Z,94004.00
2023-03-26T10:50:04.677Z,94002.00
2023-03-26T10:51:04.669Z,94000.00
2023-03-26T10:52:04.662Z,94000.00
2023-03-26T10:53:04.674Z,93998.00
2023-03-26T10:54:04.700Z,94000.00
2023-03-26T10:55:04.697Z,94000.00
2023-03-26T11:01:06.234Z,94000.00
2023-03-26T11:02:04.724Z,94002.00
2023-03-26T11:03:04.859Z,94004.00
2023-03-26T11:04:04.753Z,94004.00
2023-03-26T11:06:04.748Z,94000.00
2023-03-26T11:07:05.128Z,94000.00
2023-03-26T11:08:04.868Z,94004.00
2023-03-26T11:19:05.724Z,93979.00
2023-03-26T11:20:04.925Z,93977.00
2023-03-26T11:21:19.898Z,93975.00
2023-03-26T11:22:05.861Z,93973.00
2023-03-26T11:25:05.719Z,93973.00
2023-03-26T11:27:14.986Z,93973.00
2023-03-26T11:28:05.804Z,93971.00
2023-03-26T11:31:04.793Z,93963.00
2023-03-26T11:32:04.786Z,93961.00
2023-03-26T11:33:04.814Z,93959.00
2023-03-26T11:35:04.809Z,93959.00
2023-03-26T11:37:04.755Z,93953.00
2023-03-26T11:42:04.733Z,93948.00
2023-03-26T11:46:04.744Z,93936.00
2023-03-26T11:47:04.699Z,93934.00
2023-03-26T11:57:07.207Z,93918.00
2023-03-26T12:00:04.679Z,93916.00
2023-03-26T12:03:04.627Z,93914.00
2023-03-26T12:04:04.569Z,93920.00
2023-03-26T12:12:04.516Z,93908.00
2023-03-26T12:13:04.469Z,93899.00
2023-03-26T12:14:04.501Z,93893.00
2023-03-26T12:15:04.490Z,93893.00
2023-03-26T12:18:04.490Z,93883.00
2023-03-26T12:19:04.456Z,93883.00
2023-03-26T12:20:04.531Z,93881.00
2023-03-26T12:27:04.407Z,93895.00
2023-03-26T12:38:04.332Z,93897.00
2023-03-26T12:39:43.032Z,93899.00
2023-03-26T12:40:08.827Z,93904.00
2023-03-26T12:41:05.302Z,93914.00
2023-03-26T12:44:47.535Z,93906.00
2023-03-26T12:44:50.337Z,93906.00
2023-03-26T12:47:59.726Z,93899.00
2023-03-26T12:48:05.317Z,93899.00
2023-03-26T12:49:04.377Z,93899.00
2023-03-26T12:50:04.240Z,93901.00
2023-03-26T12:55:12.241Z,93904.00
2023-03-26T12:56:05.252Z,93906.00
2023-03-26T12:57:12.431Z,93906.00
2023-03-26T12:58:13.283Z,93908.00
2023-03-26T13:00:04.253Z,93916.00
2023-03-26T13:02:04.190Z,93926.00
2023-03-26T13:03:04.212Z,93926.00
2023-03-26T13:06:04.153Z,93932.00
2023-03-26T13:11:04.124Z,93955.00
2023-03-26T13:12:04.131Z,93957.00
2023-03-26T13:17:04.075Z,93969.00
2023-03-26T13:18:04.108Z,93967.00
2023-03-26T13:22:04.025Z,93975.00
2023-03-26T13:30:04.016Z,93975.00
2023-03-26T13:34:03.967Z,93975.00
2023-03-26T13:38:03.959Z,93983.00
2023-03-26T13:44:03.911Z,93967.00
2023-03-26T13:48:03.913Z,93971.00
2023-03-26T13:54:03.847Z,93969.00
2023-03-26T13:59:03.804Z,93961.00
2023-03-26T14:00:03.810Z,93959.00
2023-03-26T14:08:03.725Z,93961.00
2023-03-26T14:09:03.743Z,93963.00
2023-03-26T14:10:03.739Z,93965.00
2023-03-26T14:19:03.819Z,93969.00
2023-03-26T14:20:03.844Z,93969.00
2023-03-26T14:21:03.873Z,93965.00
2023-03-26T14:22:03.872Z,93965.00
2023-03-26T14:23:03.892Z,93967.00
2023-03-26T14:24:03.892Z,93969.00
2023-03-26T14:25:03.910Z,93969.00
2023-03-26T14:26:03.963Z,93967.00
2023-03-26T14:33:04.079Z,93961.00
2023-03-26T14:34:04.047Z,93963.00
2023-03-26T14:35:04.091Z,93961.00
2023-03-26T14:36:04.097Z,93957.00
2023-03-26T14:37:04.099Z,93953.00
2023-03-26T14:38:04.128Z,93953.00
2023-03-26T14:39:04.145Z,93948.00
2023-03-26T14:40:04.155Z,93948.00
2023-03-26T14:41:04.173Z,93948.00
2023-03-26T14:42:04.202Z,93946.00
2023-03-26T14:43:04.212Z,93944.00
2023-03-26T14:44:04.211Z,93944.00
2023-03-26T14:45:04.239Z,93944.00
2023-03-26T14:46:04.277Z,93944.00
2023-03-26T14:47:04.402Z,93940.00
2023-03-26T14:48:04.402Z,93938.00
2023-03-26T14:55:04.417Z,93944.00
2023-03-26T14:56:04.460Z,93951.00
2023-03-26T15:03:04.636Z,93953.00
2023-03-26T15:04:04.583Z,93953.00
2023-03-26T15:11:04.703Z,93971.00
2023-03-26T15:12:12.201Z,93971.00
2023-03-26T15:17:04.668Z,93951.00
2023-03-26T15:18:04.699Z,93955.00
2023-03-26T15:19:04.648Z,93955.00
2023-03-26T15:20:04.644Z,93957.00
2023-03-26T15:21:04.652Z,93959.00
2023-03-26T15:33:04.595Z,93951.00
2023-03-26T15:35:04.547Z,93944.00
2023-03-26T15:36:04.633Z,93942.00
2023-03-26T15:41:04.633Z,93920.00
2023-03-26T15:43:04.595Z,93918.00
2023-03-26T15:44:24.893Z,93918.00
2023-03-26T15:45:05.617Z,93920.00
2023-03-26T15:47:04.604Z,93916.00
2023-03-26T15:51:04.580Z,93891.00
2023-03-26T15:52:04.533Z,93885.00
2023-03-26T15:57:04.578Z,93891.00
2023-03-26T15:58:04.549Z,93891.00
2023-03-26T16:05:04.585Z,93889.00
2023-03-26T16:06:04.581Z,93889.00
2023-03-26T16:07:04.648Z,93885.00
2023-03-26T16:08:04.643Z,93887.00
2023-03-26T16:09:04.690Z,93885.00
2023-03-26T16:10:04.702Z,93885.00
2023-03-26T16:11:04.715Z,93891.00
2023-03-26T16:12:04.773Z,93895.00
2023-03-26T16:13:04.796Z,93895.00
2023-03-26T16:14:04.839Z,93895.00
2023-03-26T16:15:04.854Z,93895.00
2023-03-26T16:16:04.923Z,93891.00
2023-03-26T16:17:04.900Z,93893.00
2023-03-26T16:18:04.979Z,93891.00
2023-03-26T16:19:04.983Z,93887.00
2023-03-26T16:20:04.994Z,93887.00
2023-03-26T16:21:05.034Z,93885.00
2023-03-26T16:22:05.084Z,93887.00
2023-03-26T16:23:05.140Z,93889.00
2023-03-26T16:24:05.121Z,93893.00
2023-03-26T16:25:27.155Z,93899.00
2023-03-26T16:26:06.158Z,93902.00
2023-03-26T16:32:05.142Z,93881.00
2023-03-26T16:33:05.185Z,93873.00
2023-03-26T16:36:05.317Z,93869.00
2023-03-26T16:37:05.118Z,93863.00
2023-03-26T16:40:05.448Z,93852.00
2023-03-26T16:41:05.237Z,93848.00
2023-03-26T16:42:06.565Z,93844.00
2023-03-26T16:43:05.317Z,93844.00
2023-03-26T16:44:05.378Z,93842.00
2023-03-26T16:45:05.374Z,93844.00
2023-03-26T16:46:05.426Z,93838.00
2023-03-26T16:47:05.491Z,93836.00
2023-03-26T16:48:05.550Z,93832.00
2023-03-26T16:49:05.521Z,93828.00
2023-03-26T16:50:08.365Z,93826.00
2023-03-26T16:51:05.548Z,93822.00
2023-03-26T16:53:05.520Z,93824.00
2023-03-26T16:54:05.564Z,93824.00
2023-03-26T16:56:05.537Z,93828.00
2023-03-26T17:09:05.428Z,93844.00
2023-03-26T17:10:05.437Z,93844.00
2023-03-26T17:13:05.384Z,93846.00
2023-03-26T17:14:05.386Z,93846.00
2023-03-26T17:19:05.382Z,93834.00
2023-03-26T17:20:05.423Z,93838.00
2023-03-26T17:22:05.309Z,93850.00
2023-03-26T17:24:05.324Z,93850.00
2023-03-26T17:30:05.422Z,93840.00
2023-03-26T17:31:05.433Z,93842.00
2023-03-26T17:32:05.480Z,93842.00
2023-03-26T17:33:05.546Z,93846.00
2023-03-26T17:34:05.559Z,93846.00
2023-03-26T17:35:05.600Z,93852.00
2023-03-26T17:36:05.616Z,93854.00
2023-03-26T17:37:05.650Z,93850.00
2023-03-26T17:38:05.663Z,93854.00
2023-03-26T17:39:05.739Z,93850.00
2023-03-26T17:40:05.778Z,93842.00
2023-03-26T17:41:05.817Z,93838.00
2023-03-26T17:42:05.820Z,93834.00
2023-03-26T17:43:06.271Z,93832.00
2023-03-26T17:44:05.914Z,93836.00
2023-03-26T17:45:05.961Z,93840.00
2023-03-26T17:46:06.062Z,93838.00
2023-03-26T17:47:06.053Z,93838.00
2023-03-26T17:48:06.104Z,93834.00
2023-03-26T17:49:06.138Z,93834.00
2023-03-26T17:50:06.157Z,93832.00
2023-03-26T17:51:06.221Z,93832.00
2023-03-26T17:52:06.278Z,93832.00
2023-03-26T17:53:06.341Z,93842.00
2023-03-26T17:54:06.345Z,93846.00
2023-03-26T17:55:06.409Z,93856.00
2023-03-26T17:56:06.428Z,93869.00
2023-03-26T17:57:06.503Z,93869.00
2023-03-26T17:58:06.509Z,93875.00
2023-03-26T17:59:11.612Z,93877.00
2023-03-26T18:00:07.564Z,93877.00
2023-03-26T18:07:06.480Z,93891.00
2023-03-26T18:11:06.466Z,93901.00
2023-03-26T18:12:06.528Z,93901.00
2023-03-26T18:13:06.558Z,93904.00
2023-03-26T18:14:06.577Z,93908.00
2023-03-26T18:15:06.646Z,93912.00
2023-03-26T18:16:06.696Z,93914.00
2023-03-26T18:17:06.789Z,93918.00
2023-03-26T18:18:06.757Z,93920.00
2023-03-26T18:19:06.820Z,93926.00
2023-03-26T18:20:06.889Z,93924.00
2023-03-26T18:21:06.908Z,93922.00
2023-03-26T18:22:07.350Z,93912.00
2023-03-26T18:25:07.113Z,93883.00
2023-03-26T18:26:07.146Z,93875.00
2023-03-26T18:27:07.218Z,93865.00
2023-03-26T18:28:07.253Z,93856.00
2023-03-26T18:29:07.300Z,93856.00
2023-03-26T18:30:07.332Z,93852.00
2023-03-26T18:31:07.365Z,93856.00
2023-03-26T18:32:07.570Z,93865.00
2023-03-26T18:33:07.516Z,93869.00
2023-03-26T18:34:07.547Z,93871.00
2023-03-26T18:35:07.644Z,93875.00
2023-03-26T18:42:07.974Z,93869.00
2023-03-26T18:43:08.017Z,93865.00
2023-03-26T18:44:08.089Z,93863.00
2023-03-26T18:45:08.124Z,93865.00
2023-03-26T18:46:08.224Z,93863.00
2023-03-26T18:47:08.211Z,93865.00
2023-03-26T18:48:08.320Z,93863.00
2023-03-26T18:49:08.326Z,93856.00
2023-03-26T18:50:08.374Z,93854.00
2023-03-26T18:51:08.444Z,93850.00
2023-03-26T18:52:08.524Z,93850.00
2023-03-26T18:53:08.539Z,93850.00
2023-03-26T18:54:08.547Z,93848.00
2023-03-26T18:55:08.601Z,93850.00
2023-03-26T18:56:08.676Z,93850.00
2023-03-26T18:57:15.887Z,93850.00
2023-03-26T19:02:08.762Z,93865.00
2023-03-26T19:04:08.668Z,93871.00
2023-03-26T19:08:08.652Z,93877.00
2023-03-26T19:09:16.697Z,93875.00
2023-03-26T19:14:08.667Z,93854.00
2023-03-26T19:15:08.690Z,93856.00
2023-03-26T19:16:08.627Z,93854.00
2023-03-26T19:17:08.679Z,93856.00
2023-03-26T19:18:08.794Z,93865.00
2023-03-26T19:27:08.869Z,93883.00
2023-03-26T19:28:08.926Z,93885.00
2023-03-26T19:29:08.961Z,93889.00
2023-03-26T19:30:09.028Z,93893.00
2023-03-26T19:31:09.138Z,93893.00
2023-03-26T19:32:09.097Z,93893.00
2023-03-26T19:33:12.575Z,93889.00
2023-03-26T19:45:09.068Z,93881.00
2023-03-26T19:46:09.104Z,93883.00
2023-03-26T19:48:15.118Z,93879.00
2023-03-26T19:49:10.082Z,93877.00
2023-03-26T19:50:09.022Z,93877.00
2023-03-26T19:51:09.042Z,93877.00